Time;durP1;ratioP1;P1;durP2;ratioP2;P2;SDS_P1;SDS_P2;PMS_P1;PMS_P2;Temp;Humidity;BMP_temperature;BMP_pressure;BME280_temperature;BME280_humidity;BME280_pressure;Samples;Min_cycle;Max_cycle;Signal;HPM_P1;HPM_P2
2022/07/06 00:00:16;;;;;;;6.10;3.38;;;19.40;49.80;;;19.86;42.93;98205.38;5026740;28;20046;-39
2022/07/06 00:02:43;;;;;;;3.25;2.85;;;19.40;49.50;;;19.84;43.14;98219.09;5026187;28;20046;-39
2022/07/06 00:05:11;;;;;;;6.22;3.03;;;19.40;49.50;;;19.82;43.22;98213.06;5028358;28;20048;-39
2022/07/06 00:07:39;;;;;;;4.10;2.90;;;19.40;49.70;;;19.79;43.29;98212.63;5025945;28;20045;-40
2022/07/06 00:10:07;;;;;;;3.83;2.75;;;19.30;49.80;;;19.80;43.05;98211.59;5026591;28;20041;-41
2022/07/06 00:12:35;;;;;;;5.28;2.58;;;19.30;49.70;;;19.79;43.31;98209.94;5027772;28;20059;-39
2022/07/06 00:15:04;;;;;;;3.33;2.45;;;19.30;49.70;;;19.83;42.94;98200.38;5028077;28;20052;-39
2022/07/06 00:17:31;;;;;;;3.17;2.88;;;19.40;49.30;;;19.84;42.95;98208.28;5027076;28;20064;-39
2022/07/06 00:19:59;;;;;;;3.17;2.63;;;19.40;49.30;;;19.84;42.74;98208.28;5027595;28;20056;-40
2022/07/06 00:22:27;;;;;;;4.25;3.15;;;19.40;49.20;;;19.73;43.39;98205.34;5027672;28;20217;-39
2022/07/06 00:24:55;;;;;;;3.13;2.70;;;19.20;50.20;;;19.67;43.24;98207.81;5027988;28;20048;-39
2022/07/06 00:27:23;;;;;;;2.90;2.60;;;19.10;50.10;;;19.58;43.44;98206.34;5026698;28;20071;-40
2022/07/06 00:29:51;;;;;;;3.55;2.97;;;19.00;50.50;;;19.54;43.56;98205.09;5024856;28;20071;-39
2022/07/06 00:32:19;;;;;;;6.25;2.83;;;19.00;50.20;;;19.48;43.59;98205.91;5025787;28;20053;-39
2022/07/06 00:34:46;;;;;;;4.95;3.03;;;18.90;50.80;;;19.47;43.50;98204.25;5027706;28;20057;-39
2022/07/06 00:37:15;;;;;;;3.80;2.25;;;18.90;50.30;;;19.46;43.37;98207.97;5026686;28;20063;-40
2022/07/06 00:39:43;;;;;;;4.40;2.83;;;19.00;50.10;;;19.50;43.38;98206.53;5025992;28;20244;-40
2022/07/06 00:42:11;;;;;;;4.18;2.47;;;19.00;50.00;;;19.36;43.72;98210.25;5025697;28;20045;-40
2022/07/06 00:44:38;;;;;;;3.10;2.53;;;18.90;50.60;;;19.41;43.42;98207.78;5023964;28;20045;-40
2022/07/06 00:47:07;;;;;;;4.75;2.88;;;18.90;49.90;;;19.33;43.76;98207.94;5025531;28;20371;-39
2022/07/06 00:52:22;;;;;;;3.30;2.60;;;18.80;50.10;;;19.14;44.18;98213.09;5026147;28;20060;-39
2022/07/06 00:54:51;;;;;;;6.10;2.53;;;18.70;51.00;;;19.06;44.34;98215.97;5042374;28;20369;-39
2022/07/06 00:57:18;;;;;;;4.32;2.58;;;18.60;51.20;;;19.03;44.34;98205.56;5026409;28;20061;-39
2022/07/06 00:59:46;;;;;;;3.10;2.80;;;18.60;51.30;;;19.03;44.21;98214.50;5026221;28;20041;-39
2022/07/06 01:02:14;;;;;;;2.70;2.50;;;18.60;51.10;;;19.02;44.26;98215.53;5042021;28;20221;-40
2022/07/06 01:04:42;;;;;;;3.78;2.42;;;18.60;51.90;;;18.91;44.46;98213.41;5025136;28;20453;-39
2022/07/06 01:07:10;;;;;;;2.35;2.13;;;18.40;51.60;;;18.85;44.65;98215.03;5027339;28;20041;-39
2022/07/06 01:09:39;;;;;;;4.32;2.70;;;18.40;52.00;;;18.62;45.17;98211.78;5025073;28;20045;-40
2022/07/06 01:12:07;;;;;;;4.20;2.45;;;18.20;52.40;;;18.60;45.03;98203.88;5025866;28;20050;-39
2022/07/06 01:14:36;;;;;;;2.40;2.15;;;18.20;51.80;;;18.58;45.19;98207.81;5027712;28;20057;-39
2022/07/06 01:17:04;;;;;;;5.70;2.83;;;18.10;52.20;;;18.54;45.28;98203.88;5025492;28;20199;-40
2022/07/06 01:19:32;;;;;;;5.18;2.60;;;18.10;52.80;;;18.52;45.13;98197.84;5025605;28;20045;-40
2022/07/06 01:22:01;;;;;;;2.65;2.20;;;18.00;52.60;;;18.54;45.02;98199.28;5042403;28;20057;-40
2022/07/06 01:24:29;;;;;;;3.55;2.90;;;18.00;51.90;;;18.47;45.09;98191.16;5024897;28;20050;-40
2022/07/06 01:26:57;;;;;;;3.75;2.60;;;18.10;52.60;;;18.39;45.54;98199.41;5040484;28;20065;-44
2022/07/06 01:29:26;;;;;;;2.35;2.03;;;17.90;53.00;;;18.26;45.75;98193.94;5040950;28;20372;-40
2022/07/06 01:31:53;;;;;;;3.13;2.83;;;17.80;53.40;;;18.05;46.26;98192.97;5026221;28;20064;-40
2022/07/06 01:34:22;;;;;;;3.08;2.28;;;17.70;53.70;;;17.92;46.63;98192.03;5026302;28;20056;-40
2022/07/06 01:36:50;;;;;;;2.70;2.50;;;17.50;54.30;;;18.04;46.27;98193.16;5024875;28;20240;-40
2022/07/06 01:39:19;;;;;;;4.95;2.70;;;17.60;54.00;;;17.98;46.51;98191.25;5024826;28;20068;-40
2022/07/06 01:41:47;;;;;;;4.53;2.90;;;17.60;53.70;;;18.03;46.32;98188.78;5025508;28;20056;-39
2022/07/06 01:44:15;;;;;;;4.38;3.40;;;17.60;53.30;;;18.04;46.35;98185.91;5024497;28;20363;-39
2022/07/06 01:46:43;;;;;;;2.72;2.33;;;17.60;53.70;;;17.98;46.75;98185.88;5025995;28;20049;-40
2022/07/06 01:49:10;;;;;;;3.80;3.08;;;17.60;53.60;;;17.91;46.80;98193.88;5029914;28;20263;-40
2022/07/06 01:51:39;;;;;;;4.20;2.83;;;17.50;53.70;;;17.93;46.71;98189.13;5044211;28;20355;-39
2022/07/06 01:54:09;;;;;;;4.07;3.13;;;17.60;53.90;;;18.04;46.54;98193.16;5029920;28;20057;-39
2022/07/06 01:56:36;;;;;;;4.10;2.63;;;17.60;53.80;;;17.84;47.29;98188.44;5045592;28;20060;-39
2022/07/06 01:59:06;;;;;;;3.85;3.13;;;17.50;54.50;;;17.72;48.00;98189.97;5028037;28;20335;-39
2022/07/06 02:01:34;;;;;;;4.43;2.78;;;17.30;55.50;;;17.59;48.60;98187.16;5029749;28;20045;-39
2022/07/06 02:04:02;;;;;;;6.05;3.60;;;17.20;56.20;;;17.74;47.36;98201.38;5028539;28;20053;-40
2022/07/06 02:06:31;;;;;;;3.83;2.67;;;17.30;55.40;;;17.54;48.20;98201.19;5026766;28;20055;-40
2022/07/06 02:08:59;;;;;;;2.92;2.50;;;17.20;55.70;;;17.63;47.95;98213.50;5027838;28;20061;-40
2022/07/06 02:11:27;;;;;;;2.80;2.50;;;17.20;55.50;;;17.57;48.07;98206.19;5027545;28;20355;-39
2022/07/06 02:13:55;;;;;;;4.45;3.13;;;17.20;55.80;;;17.63;48.24;98207.28;5028438;28;20233;-39
2022/07/06 02:16:24;;;;;;;3.83;2.92;;;17.30;56.20;;;17.50;48.67;98206.09;5027225;28;20059;-39
2022/07/06 02:18:52;;;;;;;3.22;2.83;;;17.20;56.40;;;17.52;48.54;98211.31;5028406;28;20266;-39
2022/07/06 02:21:20;;;;;;;6.32;3.17;;;17.20;56.50;;;17.29;49.14;98203.41;5030066;28;20045;-39
2022/07/06 02:23:48;;;;;;;6.38;3.22;;;17.00;57.70;;;17.25;49.49;98207.50;5028788;28;20230;-39
2022/07/06 02:26:17;;;;;;;5.70;3.58;;;16.90;58.10;;;17.18;49.58;98198.53;5028075;28;20063;-39
2022/07/06 02:28:47;;;;;;;4.32;3.08;;;16.80;58.00;;;17.04;50.45;98198.38;5027117;28;20049;-40
2022/07/06 02:31:15;;;;;;;5.40;3.65;;;16.80;58.70;;;17.08;50.04;98199.69;5028387;28;20053;-39
2022/07/06 02:33:46;;;;;;;3.88;2.72;;;16.70;58.00;;;17.03;50.22;98204.78;5027515;28;20252;-39
2022/07/06 02:36:15;;;;;;;5.55;3.22;;;16.80;58.30;;;16.99;50.42;98208.03;5044328;28;20060;-40
2022/07/06 02:38:43;;;;;;;4.32;2.90;;;16.70;59.20;;;17.00;50.64;98209.69;5027338;28;20060;-39
2022/07/06 02:41:11;;;;;;;5.47;3.17;;;16.70;59.10;;;17.06;50.11;98207.09;5026932;28;20049;-39
2022/07/06 02:43:40;;;;;;;6.20;3.63;;;16.70;58.40;;;17.07;50.38;98208.75;5027736;28;20049;-39
2022/07/06 02:46:08;;;;;;;3.05;2.47;;;16.70;59.30;;;17.10;50.39;98210.25;5029025;28;20056;-38
2022/07/06 02:48:37;;;;;;;4.53;3.45;;;16.70;59.10;;;16.86;51.83;98212.22;5044143;28;20369;-38
2022/07/06 02:51:06;;;;;;;4.35;3.00;;;16.60;60.50;;;16.88;51.04;98217.41;5042355;28;20064;-38
2022/07/06 02:53:34;;;;;;;3.67;3.17;;;16.50;59.70;;;16.77;51.62;98212.47;5027308;28;20063;-38
2022/07/06 02:56:02;;;;;;;7.65;3.83;;;16.50;61.00;;;16.79;51.74;98215.81;5026227;28;20290;-39
2022/07/06 02:58:31;;;;;;;5.20;3.70;;;16.50;60.40;;;16.85;51.56;98218.63;5027245;28;20059;-39
2022/07/06 03:00:59;;;;;;;3.75;3.28;;;16.60;59.90;;;16.88;51.56;98215.56;5027400;28;20049;-38
2022/07/06 03:03:27;;;;;;;3.75;3.40;;;16.60;60.50;;;16.83;51.63;98219.84;5026448;28;20076;-39
2022/07/06 03:05:55;;;;;;;4.70;3.30;;;16.50;60.60;;;16.84;51.74;98221.50;5028795;28;20050;-39
2022/07/06 03:08:24;;;;;;;5.95;3.42;;;16.50;61.60;;;16.63;52.24;98223.03;5026052;28;20059;-40
2022/07/06 03:10:52;;;;;;;4.07;3.60;;;16.30;61.90;;;16.63;52.66;98224.91;5026734;28;20055;-39
2022/07/06 03:13:20;;;;;;;3.75;3.38;;;16.20;63.00;;;16.72;52.04;98230.00;5027956;28;20064;-39
2022/07/06 03:15:48;;;;;;;5.15;3.60;;;16.30;61.40;;;16.66;52.61;98230.75;5043258;28;20057;-39
2022/07/06 03:18:17;;;;;;;6.68;4.05;;;16.40;62.70;;;16.54;53.05;98238.44;5025473;28;20367;-39
2022/07/06 03:20:45;;;;;;;4.78;3.67;;;16.20;63.50;;;16.44;53.33;98240.59;5027628;28;20051;-39
2022/07/06 03:23:15;;;;;;;5.07;3.30;;;16.10;63.20;;;16.58;53.16;98246.16;5042079;28;20055;-39
2022/07/06 03:25:45;;;;;;;6.43;4.65;;;16.30;63.10;;;16.62;52.80;98240.22;5027232;28;20056;-39
2022/07/06 03:28:13;;;;;;;6.55;3.65;;;16.30;62.50;;;16.52;53.26;98239.66;5026086;28;20049;-39
2022/07/06 03:30:41;;;;;;;7.03;4.13;;;16.20;63.60;;;16.44;53.65;98239.72;5024551;28;20080;-39
2022/07/06 03:33:09;;;;;;;5.75;3.67;;;16.10;64.30;;;16.47;53.54;98237.50;5026647;28;20060;-39
2022/07/06 03:35:37;;;;;;;4.68;3.97;;;16.10;64.30;;;16.32;54.30;98242.03;5042774;28;20058;-39
2022/07/06 03:38:07;;;;;;;5.28;3.55;;;16.00;64.90;;;16.39;53.93;98247.53;5026684;28;20364;-39
2022/07/06 03:40:35;;;;;;;5.50;4.03;;;16.00;64.70;;;16.40;54.02;98241.97;5025046;28;20061;-39
2022/07/06 03:43:03;;;;;;;7.97;4.30;;;16.10;64.60;;;16.46;53.83;98248.44;5043052;28;20068;-39
2022/07/06 03:45:35;;;;;;;5.57;4.15;;;16.10;64.80;;;16.39;54.32;98244.84;5027311;28;20049;-38
2022/07/06 03:48:05;;;;;;;4.82;4.22;;;16.00;65.20;;;16.29;55.22;98245.94;5025168;28;20133;-39
2022/07/06 03:50:36;;;;;;;8.88;4.50;;;15.90;67.50;;;16.38;54.23;98245.84;5025382;28;20079;-38
2022/07/06 03:53:04;;;;;;;6.07;4.05;;;15.90;66.10;;;16.39;54.44;98247.53;5026822;28;20063;-39
2022/07/06 03:55:33;;;;;;;6.30;4.32;;;15.90;66.00;;;16.26;54.99;98250.81;5026628;28;20060;-39
2022/07/06 03:58:05;;;;;;;4.90;4.47;;;15.90;66.80;;;16.22;55.46;98244.16;5042760;28;20054;-38
2022/07/06 04:00:36;;;;;;;5.90;4.60;;;15.90;68.00;;;16.29;55.11;98253.16;5042570;28;20236;-39
2022/07/06 04:03:07;;;;;;;4.53;4.13;;;15.90;66.80;;;16.30;55.14;98255.69;5026500;28;20055;-39
2022/07/06 04:05:41;;;;;;;9.18;4.20;;;15.90;67.30;;;16.29;55.18;98253.16;5028469;28;20225;-39
2022/07/06 04:08:09;;;;;;;5.07;4.40;;;15.90;67.20;;;16.39;54.93;98253.72;5026392;28;20063;-39
2022/07/06 04:10:46;;;;;;;5.82;4.45;;;16.00;66.50;;;16.47;54.71;98255.50;5025175;28;20075;-39
2022/07/06 04:13:14;;;;;;;7.93;4.60;;;16.10;66.50;;;16.43;54.96;98264.94;5024967;28;20049;-39
2022/07/06 04:15:42;;;;;;;5.80;4.63;;;16.10;67.00;;;16.51;54.59;98257.63;5025966;28;20429;-39
2022/07/06 04:18:10;;;;;;;5.00;4.50;;;16.10;66.10;;;16.64;54.35;98262.38;5024725;28;20381;-39
2022/07/06 04:20:45;;;;;;;6.10;4.50;;;16.40;65.20;;;16.70;54.32;98258.94;5024371;28;20067;-39
2022/07/06 04:23:13;;;;;;;6.28;4.20;;;16.40;66.20;;;16.68;54.41;98265.53;5025147;28;20049;-40
2022/07/06 04:25:41;;;;;;;4.63;4.07;;;16.30;66.40;;;16.65;54.89;98269.41;5026004;28;20048;-39
2022/07/06 04:28:10;;;;;;;4.88;4.47;;;16.30;66.60;;;16.43;55.96;98268.47;5024715;28;20225;-39
2022/07/06 04:30:38;;;;;;;6.13;4.63;;;16.10;68.20;;;16.29;56.27;98267.41;5024361;28;20359;-40
2022/07/06 04:33:10;;;;;;;5.35;4.85;;;15.90;68.90;;;16.28;56.63;98272.97;5025627;28;20061;-40
2022/07/06 04:35:39;;;;;;;5.55;4.95;;;15.90;69.70;;;16.36;56.03;98274.75;5024725;28;20057;-39
2022/07/06 04:38:07;;;;;;;5.38;4.88;;;16.00;69.10;;;16.43;55.74;98273.84;5026529;28;20272;-39
2022/07/06 04:40:35;;;;;;;6.95;5.80;;;16.10;68.20;;;16.46;56.00;98278.84;5024881;28;20055;-39
2022/07/06 04:43:08;;;;;;;10.35;6.07;;;16.20;68.60;;;16.41;56.22;98283.09;5024502;28;20049;-39
2022/07/06 04:45:37;;;;;;;12.23;4.50;;;16.10;68.50;;;16.29;56.99;98288.09;5041786;28;20049;-39
2022/07/06 04:48:08;;;;;;;6.05;5.15;;;16.10;70.00;;;16.26;57.15;98293.81;5041733;28;20056;-39
2022/07/06 04:50:36;;;;;;;7.00;5.30;;;16.00;71.00;;;16.27;57.24;98293.63;5024561;28;20075;-39
2022/07/06 04:53:11;;;;;;;8.15;5.45;;;16.00;70.10;;;16.28;57.06;98289.91;5024961;28;20053;-40
2022/07/06 04:55:39;;;;;;;6.55;4.78;;;16.10;70.30;;;16.33;57.07;98292.91;5026585;28;20247;-40
2022/07/06 04:58:08;;;;;;;7.00;4.95;;;16.10;70.20;;;16.29;57.39;98290.78;5026772;28;20781;-39
2022/07/06 05:00:36;;;;;;;7.20;4.82;;;16.10;70.30;;;16.28;57.42;98286.41;5040660;28;20057;-39
2022/07/06 05:03:04;;;;;;;7.22;5.05;;;16.10;70.40;;;16.38;57.18;98288.84;5024780;28;20046;-39
2022/07/06 05:05:32;;;;;;;9.05;4.93;;;16.20;70.60;;;16.46;57.15;98291.44;5025617;28;20053;-39
2022/07/06 05:08:00;;;;;;;6.43;4.88;;;16.30;69.80;;;16.61;56.47;98294.97;5025405;28;20051;-39
2022/07/06 05:10:29;;;;;;;4.63;4.20;;;16.40;69.50;;;16.49;57.83;98299.16;5042235;28;20289;-39
2022/07/06 05:12:58;;;;;;;5.60;4.63;;;16.30;70.30;;;16.42;57.53;98299.06;5024911;28;20061;-39
2022/07/06 05:15:28;;;;;;;6.13;4.53;;;16.30;70.70;;;16.47;57.66;98296.63;5025279;28;20056;-39
2022/07/06 05:17:56;;;;;;;4.63;4.22;;;16.30;70.80;;;16.32;57.95;98301.13;5025054;28;20356;-39
2022/07/06 05:20:25;;;;;;;6.72;4.18;;;16.20;71.10;;;16.09;58.82;98303.84;5024214;28;20065;-40
2022/07/06 05:22:53;;;;;;;7.78;4.30;;;16.10;71.60;;;16.13;58.73;98294.44;5025825;28;20045;-39
2022/07/06 05:25:25;;;;;;;4.77;4.13;;;16.00;72.00;;;16.26;58.35;98310.75;5028696;28;20258;-39
2022/07/06 05:27:53;;;;;;;5.82;5.22;;;16.20;71.20;;;16.30;57.77;98304.03;5027367;28;20068;-40
2022/07/06 05:30:21;;;;;;;5.93;3.80;;;16.20;71.10;;;16.24;58.52;98302.03;5027827;28;20053;-39
2022/07/06 05:32:49;;;;;;;6.72;4.45;;;16.20;71.00;;;16.36;58.12;98309.69;5028550;28;20340;-40
2022/07/06 05:35:17;;;;;;;9.20;4.43;;;16.20;70.80;;;16.38;58.21;98308.50;5028151;28;20241;-40
2022/07/06 05:38:07;;;;;;;7.20;4.47;;;16.30;71.30;;;16.49;57.92;98309.91;5044527;28;20238;-40
2022/07/06 05:40:35;;;;;;;7.57;4.38;;;16.40;70.40;;;16.66;57.17;98306.03;5044070;28;20056;-40
2022/07/06 05:43:03;;;;;;;4.80;4.10;;;16.60;69.30;;;16.57;57.63;98306.28;5029654;28;20059;-40
2022/07/06 05:45:31;;;;;;;8.32;4.45;;;16.50;69.60;;;16.56;57.75;98312.69;5044409;28;20053;-39
2022/07/06 05:50:46;;;;;;;7.10;4.47;;;16.50;69.50;;;16.49;57.65;98310.72;5044135;28;20231;-39
2022/07/06 05:53:14;;;;;;;6.70;4.43;;;16.40;69.70;;;16.53;57.43;98313.88;5027757;28;20045;-40
2022/07/06 05:55:48;;;;;;;5.45;4.25;;;16.50;69.60;;;16.59;57.65;98307.78;5026930;28;20369;-40
2022/07/06 05:58:17;;;;;;;5.70;4.20;;;16.50;69.40;;;16.67;57.42;98314.91;5026691;28;20053;-40
2022/07/06 06:00:46;;;;;;;6.85;4.00;;;16.60;69.50;;;16.72;57.20;98310.66;5027014;28;20060;-40
2022/07/06 06:03:18;;;;;;;6.65;5.25;;;16.70;69.20;;;16.63;57.49;98310.94;5027696;28;20063;-39
2022/07/06 06:05:48;;;;;;;4.93;4.38;;;16.60;69.40;;;16.66;57.16;98318.63;5029305;28;20048;-40
2022/07/06 06:08:18;;;;;;;4.70;4.00;;;16.60;69.50;;;16.74;57.06;98311.31;5027042;28;20065;-40
2022/07/06 06:10:47;;;;;;;4.53;3.92;;;16.70;69.20;;;16.73;57.34;98314.22;5027421;28;20271;-40
2022/07/06 06:13:18;;;;;;;5.65;3.65;;;16.70;68.90;;;16.71;57.17;98306.31;5027673;28;20347;-39
2022/07/06 06:15:46;;;;;;;5.70;4.50;;;16.60;69.10;;;16.79;57.22;98310.78;5027049;28;20256;-39
2022/07/06 06:18:19;;;;;;;8.05;4.25;;;16.70;68.30;;;16.87;56.49;98316.09;5027910;28;20058;-39
2022/07/06 06:20:47;;;;;;;4.25;3.72;;;16.80;67.70;;;16.78;57.32;98316.34;5029455;28;20052;-39
2022/07/06 06:23:15;;;;;;;5.50;4.43;;;16.80;68.30;;;16.96;56.45;98318.69;5028356;28;20060;-39
2022/07/06 06:25:44;;;;;;;5.50;3.42;;;17.00;67.30;;;16.96;56.42;98324.06;5028953;28;20045;-39
2022/07/06 06:28:12;;;;;;;4.43;3.55;;;17.00;66.80;;;16.99;56.42;98323.69;5028650;28;20272;-39
2022/07/06 06:30:41;;;;;;;4.90;3.92;;;17.00;66.90;;;16.81;56.30;98327.56;5025403;28;20063;-39
2022/07/06 06:33:16;;;;;;;5.70;4.15;;;16.90;66.40;;;16.83;56.60;98330.09;5027984;28;20059;-40
2022/07/06 06:35:50;;;;;;;5.47;3.80;;;16.90;67.10;;;16.85;56.02;98331.56;5028500;28;20348;-41
2022/07/06 06:38:21;;;;;;;7.78;3.92;;;16.90;66.20;;;17.02;55.90;98328.69;5028533;28;20049;-40
2022/07/06 06:40:50;;;;;;;5.10;3.40;;;17.10;66.00;;;16.97;56.22;98328.44;5029819;28;20050;-40
2022/07/06 06:43:17;;;;;;;5.30;3.97;;;17.10;66.30;;;16.94;56.14;98337.69;5028334;28;20057;-39
2022/07/06 06:46:00;;;;;;;5.45;3.75;;;17.10;65.70;;;17.04;56.44;98338.25;5025802;28;20061;-40
2022/07/06 06:48:28;;;;;;;5.78;3.50;;;17.20;66.40;;;17.13;56.12;98331.75;5028366;28;20056;-40
2022/07/06 06:50:56;;;;;;;4.55;3.40;;;17.30;66.10;;;17.22;55.68;98339.75;5028248;28;20065;-41
2022/07/06 06:53:23;;;;;;;4.30;3.45;;;17.40;65.30;;;17.37;55.27;98337.88;5028650;28;20053;-40
2022/07/06 06:55:51;;;;;;;4.95;3.22;;;17.50;65.10;;;17.40;54.96;98329.41;5028284;28;20049;-40
2022/07/06 06:58:19;;;;;;;6.20;3.80;;;17.50;64.40;;;17.45;54.48;98327.00;5028794;28;20352;-40
2022/07/06 07:00:47;;;;;;;4.28;3.88;;;17.50;63.60;;;17.38;54.51;98323.38;5026882;28;20049;-39
2022/07/06 07:03:15;;;;;;;9.82;3.80;;;17.40;64.30;;;17.47;54.65;98318.72;5028772;28;20053;-40
2022/07/06 07:05:43;;;;;;;4.57;3.33;;;17.40;64.40;;;17.47;54.89;98324.94;5028563;28;20053;-40
2022/07/06 07:08:11;;;;;;;5.00;3.47;;;17.50;64.90;;;17.46;54.49;98320.56;5028930;28;20251;-40
2022/07/06 07:10:38;;;;;;;5.10;3.60;;;17.50;63.70;;;17.29;54.59;98329.88;5027461;28;20398;-40
2022/07/06 07:13:06;;;;;;;4.78;4.03;;;17.30;64.20;;;17.34;54.66;98326.63;5027733;28;20280;-40
2022/07/06 07:15:34;;;;;;;5.32;3.78;;;17.30;64.80;;;17.30;55.28;98332.38;5028827;28;20056;-40
2022/07/06 07:18:02;;;;;;;4.50;3.90;;;17.30;65.30;;;17.23;55.78;98330.63;5028105;28;20064;-40
2022/07/06 07:20:33;;;;;;;4.07;3.50;;;17.20;65.80;;;17.33;55.40;98328.47;5027834;28;20057;-40
2022/07/06 07:23:01;;;;;;;4.13;3.63;;;17.30;66.30;;;17.38;55.31;98336.84;5027074;28;20135;-41
2022/07/06 07:25:29;;;;;;;4.40;3.75;;;17.50;65.30;;;17.35;55.22;98328.28;5029410;28;20053;-40
2022/07/06 07:27:56;;;;;;;4.72;3.80;;;17.50;64.40;;;17.47;54.79;98321.44;5028969;28;20058;-40
2022/07/06 07:30:24;;;;;;;5.90;4.15;;;17.60;64.10;;;17.46;54.40;98325.94;5027814;28;20048;-40
2022/07/06 07:32:53;;;;;;;3.50;3.05;;;17.50;63.60;;;17.47;54.55;98316.88;5027630;28;20057;-40
2022/07/06 07:35:20;;;;;;;4.57;3.53;;;17.50;63.60;;;17.62;54.49;98319.53;5027636;28;20057;-40
2022/07/06 07:37:49;;;;;;;6.07;3.25;;;17.60;63.40;;;17.70;54.33;98315.88;5026888;28;20071;-40
2022/07/06 07:40:17;;;;;;;6.78;3.83;;;17.70;63.70;;;17.75;54.51;98320.69;5028278;28;20061;-40
2022/07/06 07:42:45;;;;;;;8.10;4.20;;;17.90;63.40;;;17.70;54.60;98321.28;5027404;28;20049;-41
2022/07/06 07:45:13;;;;;;;5.68;3.33;;;17.70;64.00;;;17.86;54.44;98312.97;5027105;28;20053;-40
2022/07/06 07:47:41;;;;;;;5.30;3.60;;;18.00;63.40;;;17.93;54.07;98313.03;5026937;28;20063;-40
2022/07/06 07:50:10;;;;;;;3.70;3.30;;;18.10;62.80;;;18.06;53.71;98318.53;5028495;28;20053;-40
2022/07/06 07:52:38;;;;;;;3.78;3.28;;;18.20;61.90;;;18.18;53.41;98313.47;5027075;28;20045;-40
2022/07/06 07:55:06;;;;;;;5.05;3.83;;;18.30;61.70;;;18.23;53.36;98315.59;5027335;28;20049;-41
2022/07/06 07:57:54;;;;;;;4.10;3.33;;;18.40;61.50;;;18.30;53.13;98313.81;5026614;28;20057;-40
2022/07/06 08:00:23;;;;;;;4.22;3.80;;;18.40;61.30;;;18.26;52.62;98321.44;5030462;28;20056;-40
2022/07/06 08:02:55;;;;;;;3.63;3.20;;;18.40;60.70;;;18.28;52.84;98323.91;5035677;28;20049;-40
2022/07/06 08:05:23;;;;;;;4.15;2.90;;;18.40;60.90;;;18.16;52.77;98323.63;5036282;28;20037;-40
2022/07/06 08:07:51;;;;;;;5.20;3.20;;;18.30;60.60;;;18.14;52.28;98322.16;5035140;28;20049;-40
2022/07/06 08:10:19;;;;;;;4.53;3.50;;;18.20;60.00;;;18.14;52.61;98322.16;5035879;28;20055;-40
2022/07/06 08:12:48;;;;;;;4.25;3.78;;;18.20;60.30;;;18.30;52.31;98325.41;5035939;28;20049;-41
2022/07/06 08:15:16;;;;;;;7.22;3.67;;;18.40;60.10;;;18.34;52.20;98317.78;5035331;28;20067;-40
2022/07/06 08:17:44;;;;;;;6.70;4.18;;;18.50;60.10;;;18.31;52.69;98328.94;5029949;28;20054;-41
2022/07/06 08:20:14;;;;;;;6.53;3.67;;;18.50;60.50;;;18.47;52.11;98328.66;5026268;28;20072;-40
2022/07/06 08:22:43;;;;;;;5.32;3.80;;;18.50;60.10;;;18.44;51.80;98326.34;5027191;28;20698;-40
2022/07/06 08:25:11;;;;;;;5.05;3.75;;;18.60;59.30;;;18.44;52.09;98320.13;5026143;28;20049;-41
2022/07/06 08:27:40;;;;;;;6.53;3.75;;;18.60;59.40;;;18.33;52.32;98312.56;5027061;28;20072;-40
2022/07/06 08:30:09;;;;;;;8.80;3.80;;;18.50;60.00;;;18.55;52.25;98318.75;5026659;28;20243;-40
2022/07/06 08:32:42;;;;;;;6.18;3.72;;;18.60;60.10;;;18.55;52.04;98316.88;5027324;28;20049;-40
2022/07/06 08:35:30;;;;;;;4.57;3.45;;;18.70;59.30;;;18.53;52.54;98323.50;5026189;28;20059;-40
2022/07/06 08:37:58;;;;;;;4.40;3.78;;;18.80;59.90;;;18.64;52.13;98325.69;5027405;28;20049;-41
2022/07/06 08:40:32;;;;;;;6.72;3.70;;;18.90;59.30;;;18.60;51.74;98310.94;5024383;28;20239;-41
2022/07/06 08:43:01;;;;;;;5.78;3.97;;;18.80;59.00;;;18.64;52.13;98313.00;5013529;28;20390;-41
2022/07/06 08:45:31;;;;;;;4.75;3.50;;;18.80;59.70;;;18.75;51.79;98310.81;5026551;28;20046;-40
2022/07/06 08:48:07;;;;;;;4.53;3.78;;;18.90;59.20;;;18.75;52.40;98319.75;5024249;28;20045;-41
2022/07/06 08:50:35;;;;;;;5.63;3.70;;;19.00;59.50;;;18.95;51.80;98322.59;5026100;28;20052;-40
2022/07/06 08:53:04;;;;;;;6.63;4.13;;;19.20;58.70;;;19.10;51.44;98316.25;5027685;28;20274;-40
2022/07/06 08:55:34;;;;;;;6.68;3.70;;;19.30;58.80;;;19.11;51.62;98317.91;5026787;28;20069;-40
2022/07/06 08:58:04;;;;;;;5.10;4.18;;;19.30;58.90;;;19.21;51.19;98321.91;5026555;28;20284;-40
2022/07/06 09:00:33;;;;;;;5.57;3.30;;;19.40;58.10;;;19.27;51.39;98318.41;5025396;28;20046;-40
2022/07/06 09:03:01;;;;;;;9.10;4.25;;;19.50;58.60;;;19.32;50.70;98320.50;5024844;28;20049;-40
2022/07/06 09:05:32;;;;;;;7.28;4.10;;;19.60;57.40;;;19.37;49.63;98326.13;5026299;28;20045;-40
2022/07/06 09:08:01;;;;;;;4.78;3.53;;;19.60;55.70;;;19.45;49.85;98327.84;5009202;28;20049;-39
2022/07/06 09:10:29;;;;;;;4.47;4.07;;;19.70;56.60;;;19.39;49.45;98334.88;5014821;28;20050;-40
2022/07/06 09:13:08;;;;;;;3.65;3.33;;;19.50;55.90;;;19.37;49.04;98336.13;5033453;28;20049;-40
2022/07/06 09:15:40;;;;;;;6.35;3.90;;;19.50;55.70;;;19.25;49.82;98339.38;5037636;28;20049;-40
2022/07/06 09:18:08;;;;;;;4.78;4.22;;;19.40;56.60;;;19.26;49.99;98335.63;5037006;28;20060;-40
2022/07/06 09:20:36;;;;;;;5.07;3.90;;;19.50;56.60;;;19.48;50.25;98332.81;5034988;28;20054;-40
2022/07/06 09:23:06;;;;;;;5.43;3.80;;;19.70;57.10;;;19.62;50.00;98325.63;5035059;28;20053;-40
2022/07/06 09:25:47;;;;;;;7.93;4.50;;;19.90;56.60;;;19.80;49.58;98339.41;5037128;28;20057;-40
2022/07/06 09:28:14;;;;;;;4.80;4.22;;;20.10;55.90;;;19.92;49.67;98333.41;5036453;28;20045;-40
2022/07/06 09:30:43;;;;;;;3.90;3.50;;;20.30;56.00;;;19.97;49.55;98342.56;5034632;28;20052;-40
2022/07/06 09:33:17;;;;;;;8.63;4.25;;;20.30;56.10;;;19.90;49.08;98338.19;5034910;28;20056;-40
2022/07/06 09:35:47;;;;;;;5.38;4.28;;;20.20;55.40;;;19.91;49.20;98337.13;5036349;28;20069;-40
2022/07/06 09:38:15;;;;;;;7.35;4.00;;;20.10;55.60;;;19.98;48.89;98336.13;5040540;28;20050;-41
2022/07/06 09:40:45;;;;;;;7.85;4.45;;;20.10;55.60;;;19.95;48.80;98344.66;5041665;28;20052;-40
2022/07/06 09:43:22;;;;;;;6.45;4.03;;;20.10;55.30;;;20.00;48.29;98331.34;5040806;28;20049;-41
2022/07/06 09:45:55;;;;;;;7.40;4.43;;;20.20;54.60;;;19.97;48.84;98345.28;5037832;28;20052;-41
2022/07/06 09:48:28;;;;;;;7.80;4.25;;;20.10;55.50;;;19.94;48.60;98337.56;5030896;28;20049;-40
2022/07/06 09:51:06;;;;;;;6.57;4.47;;;20.10;54.80;;;20.06;49.00;98343.19;5030377;28;20049;-40
2022/07/06 09:53:35;;;;;;;7.25;4.03;;;20.20;55.40;;;20.16;49.18;98349.06;5041453;28;20083;-40
2022/07/06 09:56:04;;;;;;;6.45;4.15;;;20.50;55.50;;;20.25;48.76;98353.22;5026375;28;20057;-40
2022/07/06 09:58:39;;;;;;;6.22;3.58;;;20.50;54.90;;;20.35;48.81;98355.50;5026403;28;20063;-40
2022/07/06 10:01:29;;;;;;;5.57;4.25;;;20.70;55.10;;;20.35;48.33;98355.50;5025964;28;20057;-40
2022/07/06 10:03:57;;;;;;;5.53;3.83;;;20.60;54.40;;;20.45;48.34;98352.38;5040240;28;20057;-39
2022/07/06 10:06:25;;;;;;;4.97;4.03;;;20.80;54.40;;;20.43;48.16;98362.59;5025431;28;20079;-39
2022/07/06 10:08:58;;;;;;;5.47;4.40;;;20.80;53.30;;;20.35;47.77;98350.09;5025700;28;20045;-40
2022/07/06 10:11:29;;;;;;;4.60;3.90;;;20.60;54.00;;;20.41;47.96;98356.56;5029405;28;20218;-40
2022/07/06 10:13:57;;;;;;;5.40;4.65;;;20.60;54.50;;;20.43;47.77;98359.88;5028859;28;20049;-40
2022/07/06 10:16:26;;;;;;;5.00;3.70;;;20.60;54.00;;;20.55;48.41;98363.66;5030154;28;20248;-40
2022/07/06 10:18:55;;;;;;;6.03;4.00;;;20.80;54.60;;;20.65;48.03;98369.50;5029172;28;20051;-39
2022/07/06 10:21:24;;;;;;;4.82;3.97;;;20.90;53.90;;;20.61;47.52;98362.03;5045317;28;20049;-40
2022/07/06 10:23:53;;;;;;;5.50;4.28;;;20.80;53.10;;;20.67;47.00;98363.88;5029838;28;20049;-39
2022/07/06 10:26:23;;;;;;;7.03;4.15;;;20.80;53.00;;;20.65;47.02;98366.78;5043261;28;20056;-40
2022/07/06 10:28:52;;;;;;;6.07;4.10;;;20.90;53.10;;;20.53;46.24;98370.28;5043797;28;20049;-39
2022/07/06 10:31:21;;;;;;;4.90;4.07;;;20.70;51.50;;;20.54;46.87;98361.16;5029060;28;20041;-39
2022/07/06 10:33:49;;;;;;;4.47;3.75;;;20.80;52.80;;;20.74;47.40;98358.47;5044845;28;20049;-39